No particular awareness of the weather is required.    There are no Weather-warnings


Meteo18 Weather Cam more information Meteo18 Weather Cam


Thunder radar more information blitzortung!


Rain radar more information rain snow radar


Visit our other weather sites:

Template documentation
and downloads

And another site



Weather Underground History page Text

Daily Summary for May 8, 2017 Units:  Metric    English   Both
« Previous Day
Next Day »
Daily Weekly Monthly Yearly Custom
  High: Low: Average:
Temperature: 14.1 °C 8.3 °C 10.2 °C
Dew Point: 9.7 °C 4.9 °C 7.1 °C
Humidity: 95 % 66 % 82 %
Wind Speed: 24.1 km/h 0.0 km/h 6.1 km/h
Wind Gust: 30.6 km/h - -
Wind:- - South
Pressure: 1023.6 hPa 1021.6 hPa -
Precipitation: 0.0 mm    
Historical Graphs
 
 
Tabular Data for May 8, 2017
Time Temperature Dew Point Pressure Wind Wind Speed Wind Gust Humidity Rainfall Rate (Hourly)
00:02 9.9 °C 9.1 °C 1021.9 hPa Calm   1.6 km/h 95 % 0.0 mm
00:07 10.0 °C 9.2 °C 1021.9 hPa WSW 3.2 km/h 3.2 km/h 95 % 0.0 mm
00:12 10.1 °C 9.3 °C 1022.2 hPa NW 4.8 km/h 6.4 km/h 95 % 0.0 mm
00:17 10.3 °C 9.5 °C 1022.2 hPa Calm   11.3 km/h 95 % 0.0 mm
00:22 10.4 °C 9.6 °C 1022.2 hPa West 1.6 km/h 11.3 km/h 95 % 0.0 mm
00:32 10.5 °C 9.7 °C 1021.9 hPa Calm   6.4 km/h 95 % 0.0 mm
00:37 10.5 °C 9.7 °C 1021.9 hPa WNW 1.6 km/h 3.2 km/h 95 % 0.0 mm
00:42 10.4 °C 9.6 °C 1021.9 hPa WNW 1.6 km/h 4.8 km/h 95 % 0.0 mm
00:47 10.3 °C 9.5 °C 1022.2 hPa NW 4.8 km/h 8.0 km/h 95 % 0.0 mm
00:52 10.3 °C 9.5 °C 1022.2 hPa WNW 4.8 km/h 8.0 km/h 95 % 0.0 mm
00:57 10.2 °C 9.3 °C 1022.2 hPa NW 4.8 km/h 8.0 km/h 94 % 0.0 mm
01:02 10.1 °C 9.2 °C 1021.9 hPa WNW 3.2 km/h 14.5 km/h 94 % 0.0 mm
01:12 10.0 °C 8.9 °C 1022.2 hPa NW 1.6 km/h 14.5 km/h 93 % 0.0 mm
01:17 9.9 °C 8.8 °C 1022.2 hPa WNW 4.8 km/h 11.3 km/h 93 % 0.0 mm
01:22 9.9 °C 8.8 °C 1022.2 hPa NW 3.2 km/h 11.3 km/h 93 % 0.0 mm
01:27 9.8 °C 8.7 °C 1022.2 hPa NW 1.6 km/h 9.7 km/h 93 % 0.0 mm
01:32 9.8 °C 8.7 °C 1022.2 hPa Calm   9.7 km/h 93 % 0.0 mm
01:37 9.8 °C 8.7 °C 1022.2 hPa WNW 3.2 km/h 6.4 km/h 93 % 0.0 mm
01:42 9.7 °C 8.6 °C 1022.2 hPa WNW 1.6 km/h 8.0 km/h 93 % 0.0 mm
01:47 9.7 °C 8.6 °C 1022.2 hPa NW 4.8 km/h 9.7 km/h 93 % 0.0 mm
01:52 9.7 °C 8.5 °C 1021.9 hPa NW 3.2 km/h 9.7 km/h 92 % 0.0 mm
01:57 9.6 °C 8.4 °C 1021.9 hPa WNW 3.2 km/h 9.7 km/h 92 % 0.0 mm
02:02 9.4 °C 8.2 °C 1021.9 hPa NW 3.2 km/h 9.7 km/h 92 % 0.0 mm
02:12 9.2 °C 8.0 °C 1021.9 hPa NW 6.4 km/h 8.0 km/h 92 % 0.0 mm
02:17 9.1 °C 7.9 °C 1021.9 hPa WNW 1.6 km/h 8.0 km/h 92 % 0.0 mm
02:22 8.9 °C 7.7 °C 1021.9 hPa West 1.6 km/h 9.7 km/h 92 % 0.0 mm
02:27 8.8 °C 7.6 °C 1021.9 hPa NW 3.2 km/h 9.7 km/h 92 % 0.0 mm
02:32 8.7 °C 7.6 °C 1021.9 hPa WNW 1.6 km/h 9.7 km/h 93 % 0.0 mm
02:37 8.5 °C 7.4 °C 1021.9 hPa NNW 4.8 km/h 8.0 km/h 93 % 0.0 mm
02:42 8.4 °C 7.3 °C 1021.9 hPa NW 1.6 km/h 8.0 km/h 93 % 0.0 mm
02:47 8.4 °C 7.3 °C 1021.9 hPa NW 3.2 km/h 9.7 km/h 93 % 0.0 mm
02:52 8.4 °C 7.5 °C 1021.6 hPa NW 4.8 km/h 9.7 km/h 94 % 0.0 mm
02:57 8.3 °C 7.4 °C 1021.6 hPa WNW 6.4 km/h 9.7 km/h 94 % 0.0 mm
03:02 8.3 °C 7.4 °C 1021.6 hPa NW 8.0 km/h 8.0 km/h 94 % 0.0 mm
03:07 8.3 °C 7.4 °C 1021.6 hPa NW 1.6 km/h 9.7 km/h 94 % 0.0 mm
03:12 8.4 °C 7.5 °C 1021.6 hPa WNW 1.6 km/h 9.7 km/h 94 % 0.0 mm
03:17 8.4 °C 7.5 °C 1021.6 hPa Calm   9.7 km/h 94 % 0.0 mm
03:22 8.4 °C 7.5 °C 1021.6 hPa NW 4.8 km/h 6.4 km/h 94 % 0.0 mm
03:27 8.4 °C 7.5 °C 1021.6 hPa Calm   6.4 km/h 94 % 0.0 mm
03:32 8.4 °C 7.5 °C 1021.6 hPa NNE 1.6 km/h 6.4 km/h 94 % 0.0 mm
03:37 8.5 °C 7.6 °C 1021.6 hPa Calm   6.4 km/h 94 % 0.0 mm
03:42 8.6 °C 7.8 °C 1021.6 hPa NNE 4.8 km/h 6.4 km/h 95 % 0.0 mm
03:52 8.8 °C 8.0 °C 1021.6 hPa NNE 6.4 km/h 14.5 km/h 95 % 0.0 mm
03:57 8.9 °C 8.1 °C 1021.6 hPa North 4.8 km/h 14.5 km/h 95 % 0.0 mm
04:02 8.9 °C 8.1 °C 1021.6 hPa North 4.8 km/h 14.5 km/h 95 % 0.0 mm
04:07 9.0 °C 8.2 °C 1021.6 hPa NNW 4.8 km/h 14.5 km/h 95 % 0.0 mm
04:12 9.1 °C 8.3 °C 1021.6 hPa NNW 9.7 km/h 14.5 km/h 95 % 0.0 mm
04:17 9.1 °C 8.3 °C 1021.6 hPa NNE 9.7 km/h 17.7 km/h 95 % 0.0 mm
04:22 9.2 °C 8.3 °C 1021.6 hPa NE 3.2 km/h 17.7 km/h 94 % 0.0 mm
04:27 9.2 °C 8.3 °C 1021.6 hPa NNE 11.3 km/h 19.3 km/h 94 % 0.0 mm
04:32 9.2 °C 8.3 °C 1021.9 hPa North 6.4 km/h 19.3 km/h 94 % 0.0 mm
04:37 9.2 °C 8.3 °C 1021.9 hPa NNW 16.1 km/h 19.3 km/h 94 % 0.0 mm
04:42 9.2 °C 8.3 °C 1021.9 hPa NNW 3.2 km/h 19.3 km/h 94 % 0.0 mm
04:47 9.2 °C 8.3 °C 1021.9 hPa North 11.3 km/h 17.7 km/h 94 % 0.0 mm
04:52 9.2 °C 8.3 °C 1021.9 hPa NNW 11.3 km/h 19.3 km/h 94 % 0.0 mm
04:57 9.2 °C 8.3 °C 1021.9 hPa NNW 4.8 km/h 19.3 km/h 94 % 0.0 mm
05:02 9.2 °C 8.3 °C 1021.9 hPa NE 4.8 km/h 19.3 km/h 94 % 0.0 mm
05:07 9.2 °C 8.3 °C 1021.9 hPa NNE 24.1 km/h 24.1 km/h 94 % 0.0 mm
05:12 9.1 °C 8.2 °C 1021.9 hPa NE 12.9 km/h 24.1 km/h 94 % 0.0 mm
05:17 9.1 °C 8.2 °C 1021.9 hPa North 6.4 km/h 24.1 km/h 94 % 0.0 mm
05:22 9.1 °C 8.0 °C 1021.9 hPa North 14.5 km/h 24.1 km/h 93 % 0.0 mm
05:27 9.0 °C 7.9 °C 1021.9 hPa NNE 9.7 km/h 19.3 km/h 93 % 0.0 mm
05:32 8.9 °C 7.8 °C 1021.9 hPa NE 4.8 km/h 19.3 km/h 93 % 0.0 mm
05:37 8.9 °C 7.8 °C 1021.9 hPa ENE 8.0 km/h 17.7 km/h 93 % 0.0 mm
05:42 8.9 °C 7.8 °C 1021.9 hPa NW 6.4 km/h 17.7 km/h 93 % 0.0 mm
05:47 8.9 °C 7.8 °C 1021.9 hPa Calm   16.1 km/h 93 % 0.0 mm
05:52 8.9 °C 7.8 °C 1021.9 hPa NE 6.4 km/h 14.5 km/h 93 % 0.0 mm
05:57 8.9 °C 7.8 °C 1021.9 hPa North 1.6 km/h 11.3 km/h 93 % 0.0 mm
06:02 8.9 °C 7.8 °C 1021.9 hPa NE 6.4 km/h 11.3 km/h 93 % 0.0 mm
06:12 8.8 °C 7.7 °C 1021.9 hPa North 9.7 km/h 12.9 km/h 93 % 0.0 mm
06:17 8.8 °C 7.7 °C 1021.9 hPa NNW 4.8 km/h 12.9 km/h 93 % 0.0 mm
06:22 8.8 °C 7.7 °C 1022.2 hPa North 16.1 km/h 16.1 km/h 93 % 0.0 mm
06:27 8.8 °C 7.7 °C 1022.2 hPa NE 6.4 km/h 16.1 km/h 93 % 0.0 mm
06:32 8.8 °C 7.7 °C 1022.2 hPa NE 9.7 km/h 17.7 km/h 93 % 0.0 mm
06:42 8.8 °C 7.7 °C 1022.2 hPa North 9.7 km/h 17.7 km/h 93 % 0.0 mm
06:52 8.7 °C 7.6 °C 1022.2 hPa NE 9.7 km/h 16.1 km/h 93 % 0.0 mm
06:57 8.7 °C 7.6 °C 1022.2 hPa North 6.4 km/h 12.9 km/h 93 % 0.0 mm
07:02 8.7 °C 7.5 °C 1022.2 hPa NE 17.7 km/h 17.7 km/h 92 % 0.0 mm
07:12 8.4 °C 7.2 °C 1022.2 hPa North 6.4 km/h 17.7 km/h 92 % 0.0 mm
07:17 8.4 °C 7.2 °C 1022.2 hPa NNE 3.2 km/h 17.7 km/h 92 % 0.0 mm
07:22 8.4 °C 7.2 °C 1022.2 hPa North 1.6 km/h 14.5 km/h 92 % 0.0 mm
07:32 8.4 °C 7.2 °C 1022.2 hPa Calm   14.5 km/h 92 % 0.0 mm
07:37 8.4 °C 7.2 °C 1022.2 hPa North 1.6 km/h 12.9 km/h 92 % 0.0 mm
07:42 8.5 °C 7.3 °C 1022.2 hPa North 3.2 km/h 12.9 km/h 92 % 0.0 mm
07:47 8.5 °C 7.3 °C 1022.6 hPa NW 6.4 km/h 12.9 km/h 92 % 0.0 mm
07:52 8.5 °C 7.1 °C 1022.6 hPa North 4.8 km/h 12.9 km/h 91 % 0.0 mm
07:57 8.6 °C 7.2 °C 1022.9 hPa North 14.5 km/h 14.5 km/h 91 % 0.0 mm
08:02 8.6 °C 7.2 °C 1022.6 hPa North 6.4 km/h 12.9 km/h 91 % 0.0 mm
08:12 8.6 °C 7.1 °C 1022.6 hPa NNE 14.5 km/h 16.1 km/h 90 % 0.0 mm
08:17 8.6 °C 6.9 °C 1022.6 hPa NE 14.5 km/h 19.3 km/h 89 % 0.0 mm
08:22 8.7 °C 7.0 °C 1022.6 hPa NNE 6.4 km/h 20.9 km/h 89 % 0.0 mm
08:27 8.7 °C 6.8 °C 1022.9 hPa NNW 9.7 km/h 20.9 km/h 88 % 0.0 mm
08:32 8.7 °C 6.8 °C 1022.9 hPa North 4.8 km/h 20.9 km/h 88 % 0.0 mm
08:37 8.8 °C 6.8 °C 1022.9 hPa NE 8.0 km/h 19.3 km/h 87 % 0.0 mm
08:42 8.8 °C 6.8 °C 1022.9 hPa NNE 4.8 km/h 17.7 km/h 87 % 0.0 mm
08:47 8.9 °C 6.9 °C 1022.9 hPa NE 9.7 km/h 17.7 km/h 87 % 0.0 mm
08:52 9.1 °C 6.7 °C 1022.9 hPa North 6.4 km/h 17.7 km/h 85 % 0.0 mm
08:57 9.1 °C 6.5 °C 1022.9 hPa North 4.8 km/h 17.7 km/h 84 % 0.0 mm
09:02 9.1 °C 6.5 °C 1022.9 hPa NNE 8.0 km/h 17.7 km/h 84 % 0.0 mm
09:07 9.2 °C 6.8 °C 1022.9 hPa North 6.4 km/h 19.3 km/h 85 % 0.0 mm
09:12 9.2 °C 6.8 °C 1023.2 hPa NE 12.9 km/h 19.3 km/h 85 % 0.0 mm
09:17 9.2 °C 6.8 °C 1023.2 hPa NW 1.6 km/h 17.7 km/h 85 % 0.0 mm
09:22 9.1 °C 6.7 °C 1023.2 hPa North 9.7 km/h 14.5 km/h 85 % 0.0 mm
09:27 9.1 °C 6.7 °C 1023.2 hPa NNW 1.6 km/h 16.1 km/h 85 % 0.0 mm
09:32 9.2 °C 7.0 °C 1023.2 hPa NNE 3.2 km/h 16.1 km/h 86 % 0.0 mm
09:37 9.1 °C 6.7 °C 1023.2 hPa North 9.7 km/h 17.7 km/h 85 % 0.0 mm
09:42 9.1 °C 6.7 °C 1023.2 hPa North 4.8 km/h 17.7 km/h 85 % 0.0 mm
09:47 9.0 °C 6.4 °C 1023.2 hPa NNW 9.7 km/h 17.7 km/h 84 % 0.0 mm
09:52 9.1 °C 6.7 °C 1023.2 hPa NNE 9.7 km/h 16.1 km/h 85 % 0.0 mm
09:57 9.1 °C 6.7 °C 1023.2 hPa NNW 6.4 km/h 14.5 km/h 85 % 0.0 mm
10:02 9.1 °C 6.2 °C 1023.2 hPa NNW 6.4 km/h 14.5 km/h 82 % 0.0 mm
10:12 9.1 °C 6.0 °C 1023.2 hPa North 8.0 km/h 20.9 km/h 81 % 0.0 mm
10:17 9.1 °C 6.2 °C 1023.6 hPa NNW 11.3 km/h 19.3 km/h 82 % 0.0 mm
10:22 9.1 °C 6.4 °C 1023.6 hPa NNE 9.7 km/h 19.3 km/h 83 % 0.0 mm
10:27 9.1 °C 6.2 °C 1023.6 hPa ENE 8.0 km/h 16.1 km/h 82 % 0.0 mm
10:32 9.2 °C 6.3 °C 1023.6 hPa NNW 8.0 km/h 16.1 km/h 82 % 0.0 mm
10:37 9.2 °C 6.5 °C 1023.6 hPa WNW 4.8 km/h 16.1 km/h 83 % 0.0 mm
10:42 9.2 °C 6.5 °C 1023.6 hPa North 1.6 km/h 16.1 km/h 83 % 0.0 mm
10:52 9.1 °C 6.4 °C 1023.6 hPa NW 3.2 km/h 11.3 km/h 83 % 0.0 mm
10:57 9.1 °C 6.4 °C 1023.6 hPa NNW 4.8 km/h 11.3 km/h 83 % 0.0 mm
11:02 9.1 °C 6.4 °C 1023.6 hPa North 6.4 km/h 14.5 km/h 83 % 0.0 mm
11:12 9.3 °C 6.0 °C 1023.6 hPa North 9.7 km/h 17.7 km/h 80 % 0.0 mm
11:17 9.3 °C 6.0 °C 1023.6 hPa NNW 8.0 km/h 17.7 km/h 80 % 0.0 mm
11:22 9.6 °C 6.3 °C 1023.6 hPa NNW 4.8 km/h 19.3 km/h 80 % 0.0 mm
11:27 10.0 °C 6.7 °C 1023.6 hPa NNW 4.8 km/h 19.3 km/h 80 % 0.0 mm
11:32 10.4 °C 6.7 °C 1023.6 hPa NNE 1.6 km/h 16.1 km/h 78 % 0.0 mm
11:37 10.7 °C 6.6 °C 1023.6 hPa NW 9.7 km/h 19.3 km/h 76 % 0.0 mm
11:42 10.7 °C 6.3 °C 1023.6 hPa NE 8.0 km/h 19.3 km/h 74 % 0.0 mm
11:47 10.7 °C 6.4 °C 1023.6 hPa North 4.8 km/h 20.9 km/h 75 % 0.0 mm
11:52 11.1 °C 7.2 °C 1023.6 hPa NNE 3.2 km/h 20.9 km/h 77 % 0.0 mm
12:02 11.4 °C 6.7 °C 1023.6 hPa ENE 1.6 km/h 19.3 km/h 73 % 0.0 mm
12:07 11.5 °C 6.6 °C 1023.6 hPa NE 14.5 km/h 19.3 km/h 72 % 0.0 mm
12:12 11.3 °C 6.6 °C 1023.6 hPa NNW 6.4 km/h 20.9 km/h 73 % 0.0 mm
12:17 11.3 °C 6.6 °C 1023.6 hPa North 3.2 km/h 20.9 km/h 73 % 0.0 mm
12:22 11.4 °C 6.9 °C 1023.2 hPa NW 9.7 km/h 19.3 km/h 74 % 0.0 mm
12:32 11.5 °C 7.2 °C 1023.2 hPa NE 16.1 km/h 17.7 km/h 75 % 0.0 mm
12:37 11.4 °C 6.9 °C 1023.6 hPa NNW 9.7 km/h 24.1 km/h 74 % 0.0 mm
12:42 11.3 °C 7.0 °C 1023.6 hPa NNW 6.4 km/h 24.1 km/h 75 % 0.0 mm
12:47 11.3 °C 7.2 °C 1023.6 hPa NE 6.4 km/h 24.1 km/h 76 % 0.0 mm
12:52 11.2 °C 6.9 °C 1023.6 hPa North 6.4 km/h 19.3 km/h 75 % 0.0 mm
12:57 11.2 °C 7.3 °C 1023.6 hPa NNE 4.8 km/h 16.1 km/h 77 % 0.0 mm
13:02 11.0 °C 6.7 °C 1023.6 hPa North 6.4 km/h 20.9 km/h 75 % 0.0 mm
13:07 10.9 °C 7.0 °C 1023.2 hPa NNE 12.9 km/h 20.9 km/h 77 % 0.0 mm
13:12 10.9 °C 6.8 °C 1023.2 hPa East 3.2 km/h 20.9 km/h 76 % 0.0 mm
13:17 11.2 °C 7.1 °C 1023.2 hPa NW 1.6 km/h 19.3 km/h 76 % 0.0 mm
13:22 11.4 °C 7.3 °C 1023.2 hPa NNW 4.8 km/h 14.5 km/h 76 % 0.0 mm
13:32 11.2 °C 7.3 °C 1023.2 hPa North 4.8 km/h 17.7 km/h 77 % 0.0 mm
13:37 11.1 °C 7.2 °C 1023.2 hPa North 4.8 km/h 17.7 km/h 77 % 0.0 mm
13:42 11.1 °C 7.2 °C 1023.2 hPa NE 19.3 km/h 19.3 km/h 77 % 0.0 mm
13:47 11.0 °C 7.1 °C 1023.2 hPa NW 12.9 km/h 19.3 km/h 77 % 0.0 mm
13:52 11.0 °C 6.9 °C 1023.2 hPa North 3.2 km/h 19.3 km/h 76 % 0.0 mm
13:57 11.1 °C 7.0 °C 1023.2 hPa North 4.8 km/h 19.3 km/h 76 % 0.0 mm
14:02 11.2 °C 7.1 °C 1023.2 hPa North 6.4 km/h 14.5 km/h 76 % 0.0 mm
14:07 11.1 °C 7.0 °C 1023.2 hPa NNW 4.8 km/h 14.5 km/h 76 % 0.0 mm
14:12 11.1 °C 7.0 °C 1023.2 hPa North 6.4 km/h 14.5 km/h 76 % 0.0 mm
14:17 11.1 °C 7.0 °C 1023.2 hPa North 12.9 km/h 14.5 km/h 76 % 0.0 mm
14:22 11.2 °C 7.1 °C 1023.2 hPa NW 4.8 km/h 14.5 km/h 76 % 0.0 mm
14:27 11.3 °C 7.2 °C 1023.2 hPa NW 6.4 km/h 14.5 km/h 76 % 0.0 mm
14:32 11.4 °C 7.1 °C 1023.2 hPa WNW 4.8 km/h 12.9 km/h 75 % 0.0 mm
14:37 11.4 °C 7.3 °C 1023.2 hPa NNW 4.8 km/h 9.7 km/h 76 % 0.0 mm
14:42 11.4 °C 7.1 °C 1023.2 hPa NNW 9.7 km/h 11.3 km/h 75 % 0.0 mm
14:47 11.4 °C 7.3 °C 1023.2 hPa NNW 8.0 km/h 14.5 km/h 76 % 0.0 mm
14:52 11.4 °C 7.1 °C 1023.2 hPa North 1.6 km/h 14.5 km/h 75 % 0.0 mm
14:57 11.4 °C 7.3 °C 1023.2 hPa West 8.0 km/h 11.3 km/h 76 % 0.0 mm
15:02 11.4 °C 7.3 °C 1023.2 hPa NNW 8.0 km/h 16.1 km/h 76 % 0.0 mm
15:07 11.3 °C 7.4 °C 1023.2 hPa NNW 3.2 km/h 16.1 km/h 77 % 0.0 mm
15:12 11.2 °C 7.7 °C 1023.2 hPa NW 3.2 km/h 16.1 km/h 79 % 0.0 mm
15:17 11.2 °C 7.5 °C 1023.2 hPa NW 11.3 km/h 12.9 km/h 78 % 0.0 mm
15:22 11.1 °C 7.2 °C 1023.2 hPa NNW 4.8 km/h 16.1 km/h 77 % 0.0 mm
15:27 11.1 °C 7.2 °C 1022.9 hPa North 3.2 km/h 17.7 km/h 77 % 0.0 mm
15:32 11.3 °C 7.8 °C 1023.2 hPa NNE 8.0 km/h 17.7 km/h 79 % 0.0 mm
15:42 11.9 °C 7.4 °C 1022.9 hPa North 8.0 km/h 12.9 km/h 74 % 0.0 mm
15:47 12.1 °C 7.6 °C 1022.9 hPa Calm   9.7 km/h 74 % 0.0 mm
15:52 12.3 °C 7.4 °C 1022.9 hPa NW 3.2 km/h 9.7 km/h 72 % 0.0 mm
15:57 12.7 °C 7.4 °C 1022.9 hPa NNW 9.7 km/h 12.9 km/h 70 % 0.0 mm
16:02 12.7 °C 7.2 °C 1022.6 hPa North 4.8 km/h 16.1 km/h 69 % 0.0 mm
16:07 12.7 °C 7.8 °C 1022.6 hPa NNE 3.2 km/h 16.1 km/h 72 % 0.0 mm
16:12 12.7 °C 7.4 °C 1022.6 hPa West 1.6 km/h 16.1 km/h 70 % 0.0 mm
16:17 13.0 °C 7.9 °C 1022.6 hPa NNW 1.6 km/h 16.1 km/h 71 % 0.0 mm
16:22 13.1 °C 8.0 °C 1022.6 hPa NNW 6.4 km/h 16.1 km/h 71 % 0.0 mm
16:27 12.9 °C 7.8 °C 1022.2 hPa NW 4.8 km/h 12.9 km/h 71 % 0.0 mm
16:32 12.9 °C 7.8 °C 1022.6 hPa NNE 9.7 km/h 17.7 km/h 71 % 0.0 mm
16:37 13.2 °C 8.5 °C 1022.2 hPa WNW 1.6 km/h 17.7 km/h 73 % 0.0 mm
16:42 13.2 °C 7.2 °C 1022.2 hPa North 6.4 km/h 17.7 km/h 67 % 0.0 mm
16:47 13.1 °C 7.5 °C 1022.2 hPa NNE 8.0 km/h 17.7 km/h 69 % 0.0 mm
16:52 13.2 °C 7.6 °C 1022.2 hPa NNW 3.2 km/h 9.7 km/h 69 % 0.0 mm
16:57 13.6 °C 8.0 °C 1022.2 hPa NNW 4.8 km/h 17.7 km/h 69 % 0.0 mm
17:02 13.7 °C 7.5 °C 1022.2 hPa NNW 8.0 km/h 17.7 km/h 66 % 0.0 mm
17:07 13.9 °C 8.1 °C 1022.2 hPa North 11.3 km/h 17.7 km/h 68 % 0.0 mm
17:12 13.8 °C 7.6 °C 1022.2 hPa NW 14.5 km/h 14.5 km/h 66 % 0.0 mm
17:17 13.6 °C 8.0 °C 1022.2 hPa NNE 11.3 km/h 20.9 km/h 69 % 0.0 mm
17:22 13.3 °C 7.7 °C 1022.2 hPa NE 6.4 km/h 20.9 km/h 69 % 0.0 mm
17:27 13.2 °C 8.1 °C 1021.9 hPa NE 8.0 km/h 14.5 km/h 71 % 0.0 mm
17:32 13.3 °C 7.7 °C 1021.9 hPa NNE 11.3 km/h 12.9 km/h 69 % 0.0 mm
17:37 13.1 °C 7.8 °C 1021.9 hPa North 9.7 km/h 14.5 km/h 70 % 0.0 mm
17:42 13.2 °C 8.1 °C 1021.9 hPa NNE 4.8 km/h 14.5 km/h 71 % 0.0 mm
17:47 13.7 °C 8.3 °C 1021.9 hPa NE 3.2 km/h 14.5 km/h 70 % 0.0 mm
17:52 13.9 °C 7.7 °C 1021.9 hPa NNW 4.8 km/h 16.1 km/h 66 % 0.0 mm
17:57 14.1 °C 7.8 °C 1021.9 hPa NNE 12.9 km/h 16.1 km/h 66 % 0.0 mm
18:02 13.9 °C 7.9 °C 1021.9 hPa North 14.5 km/h 20.9 km/h 67 % 0.0 mm
18:07 13.6 °C 7.8 °C 1021.9 hPa NNW 12.9 km/h 20.9 km/h 68 % 0.0 mm
18:12 13.4 °C 7.6 °C 1021.9 hPa North 4.8 km/h 20.9 km/h 68 % 0.0 mm
18:17 13.3 °C 7.7 °C 1021.9 hPa Calm   19.3 km/h 69 % 0.0 mm
18:22 13.2 °C 7.8 °C 1021.9 hPa NNE 8.0 km/h 12.9 km/h 70 % 0.0 mm
18:32 13.6 °C 8.0 °C 1021.6 hPa NNE 9.7 km/h 11.3 km/h 69 % 0.0 mm
18:37 13.8 °C 7.6 °C 1021.6 hPa NE 22.5 km/h 22.5 km/h 66 % 0.0 mm
18:42 13.2 °C 7.4 °C 1021.6 hPa NNE 20.9 km/h 22.5 km/h 68 % 0.0 mm
18:47 12.9 °C 7.1 °C 1021.6 hPa NE 8.0 km/h 24.1 km/h 68 % 0.0 mm
18:52 12.8 °C 7.0 °C 1021.6 hPa NE 3.2 km/h 24.1 km/h 68 % 0.0 mm
18:57 12.7 °C 6.9 °C 1021.9 hPa WNW 9.7 km/h 22.5 km/h 68 % 0.0 mm
19:07 12.5 °C 7.2 °C 1021.9 hPa NE 17.7 km/h 22.5 km/h 70 % 0.0 mm
19:12 12.2 °C 7.1 °C 1021.9 hPa NNE 14.5 km/h 27.4 km/h 71 % 0.0 mm
19:17 12.0 °C 6.9 °C 1021.9 hPa NE 11.3 km/h 27.4 km/h 71 % 0.0 mm
19:22 11.8 °C 6.7 °C 1022.2 hPa NNE 9.7 km/h 27.4 km/h 71 % 0.0 mm
19:27 11.6 °C 6.5 °C 1021.9 hPa NNW 14.5 km/h 29.0 km/h 71 % 0.0 mm
19:32 11.4 °C 6.5 °C 1022.2 hPa NNE 16.1 km/h 30.6 km/h 72 % 0.0 mm
19:37 11.2 °C 6.1 °C 1022.2 hPa NNW 12.9 km/h 30.6 km/h 71 % 0.0 mm
19:42 11.2 °C 6.1 °C 1022.2 hPa NE 8.0 km/h 30.6 km/h 71 % 0.0 mm
19:47 11.2 °C 5.7 °C 1022.2 hPa NNE 12.9 km/h 20.9 km/h 69 % 0.0 mm
19:52 11.1 °C 5.6 °C 1022.2 hPa NNE 3.2 km/h 19.3 km/h 69 % 0.0 mm
19:57 11.1 °C 5.6 °C 1022.2 hPa Calm   19.3 km/h 69 % 0.0 mm
20:02 11.0 °C 5.5 °C 1022.2 hPa NNE 1.6 km/h 20.9 km/h 69 % 0.0 mm
20:07 10.9 °C 5.4 °C 1022.2 hPa NE 16.1 km/h 20.9 km/h 69 % 0.0 mm
20:12 10.9 °C 5.4 °C 1022.2 hPa NNW 3.2 km/h 20.9 km/h 69 % 0.0 mm
20:17 10.9 °C 5.6 °C 1022.2 hPa North 4.8 km/h 19.3 km/h 70 % 0.0 mm
20:22 10.9 °C 5.4 °C 1022.2 hPa NE 6.4 km/h 19.3 km/h 69 % 0.0 mm
20:27 10.9 °C 5.4 °C 1022.2 hPa NNE 6.4 km/h 14.5 km/h 69 % 0.0 mm
20:32 10.9 °C 5.0 °C 1022.2 hPa NE 3.2 km/h 24.1 km/h 67 % 0.0 mm
20:37 10.9 °C 5.0 °C 1022.2 hPa NNE 9.7 km/h 24.1 km/h 67 % 0.0 mm
20:42 10.7 °C 5.2 °C 1022.2 hPa NNE 8.0 km/h 24.1 km/h 69 % 0.0 mm
20:47 10.5 °C 5.3 °C 1022.2 hPa NNW 6.4 km/h 20.9 km/h 70 % 0.0 mm
20:52 10.3 °C 5.1 °C 1022.2 hPa NNW 4.8 km/h 16.1 km/h 70 % 0.0 mm
20:57 10.2 °C 5.2 °C 1022.2 hPa North 1.6 km/h 14.5 km/h 71 % 0.0 mm
21:02 9.8 °C 5.0 °C 1022.6 hPa NNE 1.6 km/h 14.5 km/h 72 % 0.0 mm
21:07 9.7 °C 5.1 °C 1022.2 hPa NNE 9.7 km/h 12.9 km/h 73 % 0.0 mm
21:12 9.4 °C 5.0 °C 1022.6 hPa NNW 1.6 km/h 12.9 km/h 74 % 0.0 mm
21:17 9.2 °C 5.0 °C 1022.6 hPa NE 3.2 km/h 11.3 km/h 75 % 0.0 mm
21:22 9.1 °C 5.1 °C 1022.6 hPa NW 3.2 km/h 11.3 km/h 76 % 0.0 mm
21:27 8.9 °C 4.9 °C 1022.6 hPa Calm   8.0 km/h 76 % 0.0 mm
21:32 8.8 °C 5.0 °C 1022.6 hPa North 6.4 km/h 8.0 km/h 77 % 0.0 mm
21:37 8.7 °C 4.9 °C 1022.9 hPa North 3.2 km/h 12.9 km/h 77 % 0.0 mm
21:42 8.6 °C 5.0 °C 1022.6 hPa NNE 4.8 km/h 12.9 km/h 78 % 0.0 mm
21:47 8.6 °C 5.0 °C 1022.6 hPa NNW 3.2 km/h 12.9 km/h 78 % 0.0 mm
21:52 8.7 °C 5.1 °C 1022.9 hPa Calm   12.9 km/h 78 % 0.0 mm
21:57 8.7 °C 5.1 °C 1022.9 hPa Calm   9.7 km/h 78 % 0.0 mm
22:02 8.8 °C 5.2 °C 1022.9 hPa Calm   9.7 km/h 78 % 0.0 mm
22:07 8.8 °C 5.2 °C 1022.9 hPa NNW 3.2 km/h 6.4 km/h 78 % 0.0 mm
22:12 8.8 °C 5.4 °C 1022.9 hPa North 4.8 km/h 6.4 km/h 79 % 0.0 mm
22:17 8.9 °C 5.3 °C 1022.9 hPa North 4.8 km/h 6.4 km/h 78 % 0.0 mm
22:22 8.9 °C 5.3 °C 1022.9 hPa NNE 3.2 km/h 6.4 km/h 78 % 0.0 mm
22:27 9.0 °C 5.6 °C 1022.9 hPa NNE 3.2 km/h 6.4 km/h 79 % 0.0 mm
22:32 9.1 °C 5.7 °C 1022.9 hPa North 4.8 km/h 9.7 km/h 79 % 0.0 mm
22:37 9.1 °C 5.7 °C 1022.9 hPa NNW 1.6 km/h 9.7 km/h 79 % 0.0 mm
22:42 9.1 °C 5.7 °C 1022.9 hPa NW 3.2 km/h 8.0 km/h 79 % 0.0 mm
22:47 9.1 °C 5.7 °C 1022.9 hPa NNW 3.2 km/h 8.0 km/h 79 % 0.0 mm
22:52 9.2 °C 5.7 °C 1022.9 hPa NNE 1.6 km/h 8.0 km/h 79 % 0.0 mm
22:57 9.2 °C 5.7 °C 1022.9 hPa NNE 3.2 km/h 8.0 km/h 79 % 0.0 mm
23:02 9.2 °C 5.7 °C 1022.9 hPa NNW 1.6 km/h 8.0 km/h 79 % 0.0 mm
23:12 9.0 °C 5.9 °C 1022.9 hPa Calm   4.8 km/h 81 % 0.0 mm
23:17 8.9 °C 5.8 °C 1022.9 hPa Calm   1.6 km/h 81 % 0.0 mm
23:22 8.9 °C 6.0 °C 1022.9 hPa Calm   1.6 km/h 82 % 0.0 mm
23:27 8.9 °C 6.0 °C 1022.9 hPa Calm   1.6 km/h 82 % 0.0 mm
23:32 8.9 °C 6.2 °C 1022.9 hPa Calm   3.2 km/h 83 % 0.0 mm
23:42 8.9 °C 6.3 °C 1022.9 hPa North 1.6 km/h 6.4 km/h 84 % 0.0 mm
23:47 8.9 °C 6.3 °C 1022.9 hPa North 3.2 km/h 6.4 km/h 84 % 0.0 mm
23:52 9.0 °C 6.4 °C 1022.9 hPa NNW 4.8 km/h 6.4 km/h 84 % 0.0 mm
23:57 9.1 °C 6.5 °C 1022.9 hPa Calm   6.4 km/h 84 % 0.0 mm
Meteo18
Compliments of Weather Underground - 4 mb

Script developed by  Jim McMurry - jmcmurry@mwt.net Adapted for the template by  Wim van der Kuil - Leuven-Template.eu

You find our weather info also at:

European Weather Network

Weather Underground

Equipment we use:

Weather-station
Davis Vue

Weather-program
Meteohub

Weather-server
Raspberry PI 2 B+

Provider
1 and 1

Davis Vue

Meteohub

Raspberry PI 2 B+

1 and 1